createdAt,value
2022-10-19T00:00:33.673Z,18.06
2022-10-19T00:03:23.131Z,18.03
2022-10-19T00:05:51.400Z,18.05
2022-10-19T00:08:18.137Z,17.99
2022-10-19T00:10:45.105Z,18.02
2022-10-19T00:13:11.872Z,18.02
2022-10-19T00:15:40.324Z,18.01
2022-10-19T00:18:08.061Z,17.98
2022-10-19T00:20:35.892Z,17.94
2022-10-19T00:23:02.857Z,17.93
2022-10-19T00:25:29.825Z,17.96
2022-10-19T00:27:56.607Z,17.93
2022-10-19T00:30:23.579Z,17.94
2022-10-19T00:32:50.329Z,17.93
2022-10-19T00:35:17.436Z,17.89
2022-10-19T00:37:44.202Z,17.86
2022-10-19T00:40:11.508Z,17.86
2022-10-19T00:42:38.280Z,17.83
2022-10-19T00:45:09.677Z,17.82
2022-10-19T00:47:36.436Z,17.86
2022-10-19T00:50:03.781Z,17.83
2022-10-19T00:52:30.597Z,17.77
2022-10-19T00:54:57.793Z,17.74
2022-10-19T00:57:26.171Z,17.77
2022-10-19T00:59:53.270Z,17.76
2022-10-19T01:02:20.105Z,17.72
2022-10-19T01:04:49.267Z,17.71
2022-10-19T01:07:16.039Z,17.77
2022-10-19T01:09:43.095Z,17.70
2022-10-19T01:12:23.585Z,17.68
2022-10-19T01:14:56.757Z,17.70
2022-10-19T01:17:45.612Z,17.71
2022-10-19T01:20:43.800Z,17.70
2022-10-19T01:23:22.531Z,17.69
2022-10-19T01:26:14.411Z,17.64
2022-10-19T01:28:59.834Z,17.66
2022-10-19T01:31:45.089Z,17.66
2022-10-19T01:34:17.754Z,17.61
2022-10-19T01:36:56.501Z,17.66
2022-10-19T01:39:32.938Z,17.64
2022-10-19T01:42:13.662Z,17.63
2022-10-19T01:44:54.917Z,17.63
2022-10-19T01:47:27.405Z,17.64
2022-10-19T01:49:57.389Z,17.62
2022-10-19T01:52:24.510Z,17.59
2022-10-19T01:54:55.430Z,17.61
2022-10-19T01:57:25.747Z,17.59
2022-10-19T01:59:52.533Z,17.60
2022-10-19T02:02:20.150Z,17.58
2022-10-19T02:04:47.238Z,17.53
2022-10-19T02:07:14.225Z,17.54
2022-10-19T02:09:40.969Z,17.50
2022-10-19T02:12:09.461Z,17.55
2022-10-19T02:14:40.290Z,17.56
2022-10-19T02:17:13.893Z,17.50
2022-10-19T02:19:40.752Z,17.50
2022-10-19T02:22:08.092Z,17.50
2022-10-19T02:24:34.893Z,17.51
2022-10-19T02:27:04.916Z,17.50
2022-10-19T02:29:34.622Z,17.50
2022-10-19T02:32:01.652Z,17.48
2022-10-19T02:34:28.445Z,17.51
2022-10-19T02:36:55.491Z,17.47
2022-10-19T02:39:22.294Z,17.48
2022-10-19T02:42:36.181Z,17.48
2022-10-19T02:45:15.808Z,17.47
2022-10-19T02:47:49.469Z,17.48
2022-10-19T02:50:16.212Z,17.41
2022-10-19T02:52:43.219Z,17.42
2022-10-19T02:55:10.037Z,17.40
2022-10-19T02:57:37.363Z,17.45
2022-10-19T03:00:06.517Z,17.39
2022-10-19T03:02:33.556Z,17.40
2022-10-19T03:05:00.478Z,17.36
2022-10-19T03:07:27.493Z,17.34
2022-10-19T03:09:54.285Z,17.36
2022-10-19T03:12:21.332Z,17.35
2022-10-19T03:14:48.099Z,17.33
2022-10-19T03:17:15.088Z,17.28
2022-10-19T03:19:41.851Z,17.33
2022-10-19T03:22:08.837Z,17.28
2022-10-19T03:24:35.668Z,17.25
2022-10-19T03:27:02.681Z,17.24
2022-10-19T03:29:29.451Z,17.26
2022-10-19T03:31:56.619Z,17.28
2022-10-19T03:34:23.418Z,17.27
2022-10-19T03:36:50.498Z,17.23
2022-10-19T03:39:17.393Z,17.24
2022-10-19T03:41:44.555Z,17.20
2022-10-19T03:44:11.390Z,17.18
2022-10-19T03:46:38.520Z,17.16
2022-10-19T03:49:05.360Z,17.15
2022-10-19T03:51:32.771Z,17.12
2022-10-19T03:54:01.393Z,17.12
2022-10-19T03:56:29.135Z,17.15
2022-10-19T03:58:56.807Z,17.12
2022-10-19T04:01:28.142Z,17.09
2022-10-19T04:03:55.929Z,17.10
2022-10-19T04:06:30.916Z,17.07
2022-10-19T04:08:57.771Z,17.07
2022-10-19T04:11:26.138Z,17.00
2022-10-19T04:13:53.366Z,17.03
2022-10-19T04:16:20.712Z,17.03
2022-10-19T04:18:47.787Z,17.00
2022-10-19T04:21:20.999Z,16.97
2022-10-19T04:23:47.883Z,16.95
2022-10-19T04:26:14.951Z,16.94
2022-10-19T04:28:41.790Z,16.98
2022-10-19T04:31:08.867Z,16.95
2022-10-19T04:33:35.697Z,16.92
2022-10-19T04:36:04.657Z,16.88
2022-10-19T04:38:31.551Z,16.83
2022-10-19T04:41:03.373Z,16.79
2022-10-19T04:43:30.246Z,16.79
2022-10-19T04:45:57.230Z,16.78
2022-10-19T04:48:23.993Z,16.81
2022-10-19T04:50:54.609Z,16.73
2022-10-19T04:53:21.574Z,16.83
2022-10-19T04:55:48.542Z,16.87
2022-10-19T04:58:15.290Z,16.84
2022-10-19T05:00:42.353Z,16.79
2022-10-19T05:03:09.334Z,16.76
2022-10-19T05:05:36.374Z,16.70
2022-10-19T05:08:03.202Z,16.68
2022-10-19T05:10:30.238Z,16.69
2022-10-19T05:12:57.005Z,16.69
2022-10-19T05:15:24.017Z,16.62
2022-10-19T05:17:50.761Z,16.66
2022-10-19T05:20:18.097Z,16.65
2022-10-19T05:22:44.869Z,16.64
2022-10-19T05:25:11.897Z,16.57
2022-10-19T05:27:38.701Z,16.59
2022-10-19T05:30:06.770Z,16.61
2022-10-19T05:32:33.639Z,16.58
2022-10-19T05:35:00.637Z,16.60
2022-10-19T05:37:27.425Z,16.58
2022-10-19T05:39:54.815Z,16.55
2022-10-19T05:42:21.558Z,16.57
2022-10-19T05:44:48.597Z,16.55
2022-10-19T05:47:15.413Z,16.50
2022-10-19T05:49:42.458Z,16.56
2022-10-19T05:52:09.222Z,16.52
2022-10-19T05:54:37.029Z,16.52
2022-10-19T05:57:04.049Z,16.45
2022-10-19T05:59:31.211Z,16.44
2022-10-19T06:01:58.008Z,16.45
2022-10-19T06:04:25.393Z,16.48
2022-10-19T06:06:52.229Z,16.45
2022-10-19T06:09:19.422Z,16.53
2022-10-19T06:11:46.256Z,16.50
2022-10-19T06:14:14.733Z,16.46
2022-10-19T06:16:41.624Z,16.51
2022-10-19T06:19:08.725Z,16.47
2022-10-19T06:21:35.565Z,16.46
2022-10-19T06:24:04.423Z,16.43
2022-10-19T06:26:32.373Z,16.45
2022-10-19T06:29:00.405Z,16.42
2022-10-19T06:31:31.320Z,16.43
2022-10-19T06:33:58.655Z,16.45
2022-10-19T06:36:28.292Z,16.45
2022-10-19T06:38:56.596Z,16.42
2022-10-19T06:41:23.540Z,16.47
2022-10-19T06:43:54.332Z,16.43
2022-10-19T06:46:23.304Z,16.43
2022-10-19T06:48:54.796Z,16.47
2022-10-19T06:51:21.827Z,16.47
2022-10-19T06:53:51.682Z,16.50
2022-10-19T06:56:24.509Z,16.51
2022-10-19T06:58:51.648Z,16.49
2022-10-19T07:01:18.482Z,16.48
2022-10-19T07:03:45.623Z,16.50
2022-10-19T07:06:12.868Z,16.50
2022-10-19T07:08:40.576Z,16.54
2022-10-19T07:11:09.445Z,16.49
2022-10-19T07:13:36.543Z,16.52
2022-10-19T07:16:08.284Z,16.56
2022-10-19T07:18:35.748Z,16.55
2022-10-19T07:21:03.912Z,16.55
2022-10-19T07:23:32.071Z,16.55
2022-10-19T07:26:03.784Z,16.54
2022-10-19T07:28:31.006Z,16.53
2022-10-19T07:30:57.835Z,16.55
2022-10-19T07:33:24.862Z,16.56
2022-10-19T07:35:58.970Z,16.53
2022-10-19T07:38:25.920Z,16.54
2022-10-19T07:40:55.227Z,16.54
2022-10-19T07:43:22.240Z,16.55
2022-10-19T07:45:48.979Z,16.55
2022-10-19T07:48:15.990Z,16.48
2022-10-19T07:50:47.871Z,16.50
2022-10-19T07:53:14.887Z,16.53
2022-10-19T07:55:41.691Z,16.55
2022-10-19T07:58:08.892Z,16.58
2022-10-19T08:00:35.714Z,16.61
2022-10-19T08:05:49.741Z,16.55
2022-10-19T08:08:16.757Z,16.51
2022-10-19T08:10:43.609Z,16.52
2022-10-19T08:13:10.631Z,16.51
2022-10-19T08:15:37.408Z,16.56
2022-10-19T08:18:04.472Z,16.57
2022-10-19T08:20:31.225Z,16.51
2022-10-19T08:22:59.103Z,16.57
2022-10-19T08:25:26.103Z,16.54
2022-10-19T08:27:53.091Z,16.57
2022-10-19T08:30:19.926Z,16.58
2022-10-19T08:32:46.998Z,16.60
2022-10-19T08:35:13.823Z,16.51
2022-10-19T08:37:45.318Z,16.59
2022-10-19T08:40:24.360Z,16.53
2022-10-19T08:43:04.631Z,16.49
2022-10-19T08:45:38.931Z,16.58
2022-10-19T08:48:24.231Z,16.68
2022-10-19T08:50:51.223Z,16.62
2022-10-19T08:53:32.422Z,16.65
2022-10-19T08:56:49.215Z,16.65
2022-10-19T08:59:24.306Z,16.64
2022-10-19T09:01:55.640Z,16.66
2022-10-19T09:04:24.306Z,16.64
2022-10-19T09:07:00.370Z,16.64
2022-10-19T09:09:28.754Z,16.64
2022-10-19T09:11:56.097Z,16.69
2022-10-19T09:14:29.848Z,16.75
2022-10-19T09:16:59.226Z,16.84
2022-10-19T09:19:29.987Z,16.75
2022-10-19T09:21:57.329Z,16.77
2022-10-19T09:24:43.498Z,16.80
2022-10-19T09:27:24.754Z,16.93
2022-10-19T09:29:58.911Z,17.01
2022-10-19T09:32:28.673Z,17.00
2022-10-19T09:34:57.877Z,17.00
2022-10-19T09:37:26.550Z,16.99
2022-10-19T09:39:55.568Z,17.06
2022-10-19T09:42:30.598Z,17.12
2022-10-19T09:44:59.491Z,17.19
2022-10-19T09:47:29.478Z,17.18
2022-10-19T09:50:17.609Z,17.19
2022-10-19T09:52:51.761Z,17.17
2022-10-19T09:55:36.029Z,17.23
2022-10-19T09:58:19.460Z,17.27
2022-10-19T10:00:55.941Z,17.27
2022-10-19T10:03:22.808Z,17.27
2022-10-19T10:05:49.878Z,17.26
2022-10-19T10:08:27.439Z,17.29
2022-10-19T10:11:10.780Z,17.32
2022-10-19T10:13:40.019Z,17.32
2022-10-19T10:16:09.016Z,17.33
2022-10-19T10:18:50.804Z,17.27
2022-10-19T10:21:26.311Z,17.37
2022-10-19T10:24:01.180Z,17.37
2022-10-19T10:26:28.220Z,17.39
2022-10-19T10:28:57.863Z,17.38
2022-10-19T10:31:28.228Z,17.37
2022-10-19T10:34:10.880Z,17.34
2022-10-19T10:36:51.609Z,17.36
2022-10-19T10:39:18.466Z,17.40
2022-10-19T10:41:45.485Z,17.32
2022-10-19T10:44:20.989Z,17.35
2022-10-19T10:46:56.110Z,17.36
2022-10-19T10:49:24.833Z,17.39
2022-10-19T10:51:57.029Z,17.35
2022-10-19T10:54:26.329Z,17.34
2022-10-19T10:57:14.197Z,17.28
2022-10-19T11:00:12.141Z,17.28
2022-10-19T11:02:42.289Z,17.23
2022-10-19T11:05:25.389Z,17.30
2022-10-19T11:07:54.914Z,17.28
2022-10-19T11:10:33.544Z,17.31
2022-10-19T11:13:15.869Z,17.30
2022-10-19T11:15:52.628Z,17.37
2022-10-19T11:18:26.629Z,17.35
2022-10-19T11:20:59.311Z,17.28
2022-10-19T11:23:55.567Z,17.30
2022-10-19T11:26:25.134Z,17.29
2022-10-19T11:29:03.992Z,17.28
2022-10-19T11:31:39.458Z,17.20
2022-10-19T11:34:20.158Z,17.27
2022-10-19T11:36:51.582Z,17.32
2022-10-19T11:39:18.595Z,17.31
2022-10-19T11:41:51.992Z,17.34
2022-10-19T11:44:31.899Z,17.36
2022-10-19T11:47:13.751Z,17.35
2022-10-19T11:49:44.916Z,17.37
2022-10-19T11:52:21.022Z,17.40
2022-10-19T11:55:19.991Z,17.27
2022-10-19T11:58:12.241Z,17.35
2022-10-19T12:01:00.384Z,17.36
2022-10-19T12:03:53.319Z,17.35
2022-10-19T12:06:41.927Z,17.40
2022-10-19T12:09:30.859Z,17.43
2022-10-19T12:12:06.690Z,17.41
2022-10-19T12:14:36.254Z,17.48
2022-10-19T12:17:09.670Z,17.48
2022-10-19T12:19:42.894Z,17.43
2022-10-19T12:22:15.498Z,17.52
2022-10-19T12:24:42.382Z,17.50
2022-10-19T12:27:16.569Z,17.55
2022-10-19T12:29:45.109Z,17.57
2022-10-19T12:32:14.245Z,17.57
2022-10-19T12:34:54.522Z,17.55
2022-10-19T12:37:42.126Z,17.58
2022-10-19T12:40:32.374Z,17.60
2022-10-19T12:43:20.382Z,17.56
2022-10-19T12:45:52.159Z,17.56
2022-10-19T12:48:20.391Z,17.59
2022-10-19T12:50:50.300Z,17.50
2022-10-19T12:53:38.309Z,17.51
2022-10-19T12:56:22.731Z,17.56
2022-10-19T12:58:57.470Z,17.53
2022-10-19T13:01:48.393Z,17.54
2022-10-19T13:04:20.269Z,17.50
2022-10-19T13:07:10.925Z,17.54
2022-10-19T13:09:42.081Z,17.53
2022-10-19T13:12:19.271Z,17.50
2022-10-19T13:14:51.205Z,17.49
2022-10-19T13:17:46.553Z,17.46
2022-10-19T13:20:13.695Z,17.48
2022-10-19T13:22:41.017Z,17.38
2022-10-19T13:25:17.340Z,17.38
2022-10-19T13:27:44.837Z,17.44
2022-10-19T13:30:37.176Z,17.42
2022-10-19T13:33:28.458Z,17.44
2022-10-19T13:35:58.613Z,17.44
2022-10-19T13:38:29.136Z,17.40
2022-10-19T13:40:56.233Z,17.44
2022-10-19T13:43:38.309Z,17.43
2022-10-19T13:46:24.153Z,17.48
2022-10-19T13:49:12.532Z,17.48
2022-10-19T13:51:51.612Z,17.46
2022-10-19T13:54:27.461Z,17.41
2022-10-19T13:57:11.185Z,17.38
2022-10-19T14:00:04.991Z,17.41
2022-10-19T14:02:45.942Z,17.43
2022-10-19T14:05:47.513Z,17.40
2022-10-19T14:08:32.869Z,17.41
2022-10-19T14:11:02.246Z,17.41
2022-10-19T14:13:29.421Z,17.51
2022-10-19T14:15:57.595Z,17.47
2022-10-19T14:18:27.131Z,17.40
2022-10-19T14:21:04.825Z,17.36
2022-10-19T14:23:33.483Z,17.37
2022-10-19T14:26:03.395Z,17.38
2022-10-19T14:28:30.682Z,17.36
2022-10-19T14:31:01.862Z,17.37
2022-10-19T14:33:29.983Z,17.29
2022-10-19T14:35:56.796Z,17.30
2022-10-19T14:38:38.587Z,17.30
2022-10-19T14:41:06.275Z,17.32
2022-10-19T14:43:33.922Z,17.26
2022-10-19T14:46:06.774Z,17.26
2022-10-19T14:48:41.183Z,17.26
2022-10-19T14:51:16.129Z,17.21
2022-10-19T14:53:44.789Z,17.26
2022-10-19T14:56:14.590Z,17.25
2022-10-19T14:58:44.997Z,17.24
2022-10-19T15:01:12.228Z,17.20
2022-10-19T15:03:43.532Z,17.20
2022-10-19T15:06:18.002Z,17.18
2022-10-19T15:09:24.769Z,17.19
2022-10-19T15:12:09.005Z,17.13
2022-10-19T15:14:37.143Z,17.14
2022-10-19T15:17:05.821Z,17.13
2022-10-19T15:19:34.026Z,17.10
2022-10-19T15:22:13.508Z,17.09
2022-10-19T15:25:00.721Z,17.08
2022-10-19T15:27:40.279Z,17.08
2022-10-19T15:30:21.127Z,17.03
2022-10-19T15:33:14.409Z,17.00
2022-10-19T15:35:44.126Z,17.03
2022-10-19T15:38:14.589Z,17.02
2022-10-19T15:40:42.751Z,16.99
2022-10-19T15:43:34.274Z,16.97
2022-10-19T15:46:01.525Z,16.95
2022-10-19T15:48:40.382Z,16.94
2022-10-19T15:51:25.865Z,16.92
2022-10-19T15:53:59.701Z,16.92
2022-10-19T15:56:28.106Z,16.94
2022-10-19T15:58:56.927Z,16.91
2022-10-19T16:01:26.226Z,16.91
2022-10-19T16:03:53.097Z,16.88
2022-10-19T16:06:21.257Z,16.86
2022-10-19T16:08:48.129Z,16.80
2022-10-19T16:11:16.480Z,16.79
2022-10-19T16:13:43.320Z,16.77
2022-10-19T16:16:12.876Z,16.74
2022-10-19T16:18:39.713Z,16.70
2022-10-19T16:21:06.785Z,16.67
2022-10-19T16:23:39.318Z,16.62
2022-10-19T16:26:09.036Z,16.61
2022-10-19T16:28:35.808Z,16.58
2022-10-19T16:31:02.860Z,16.58
2022-10-19T16:33:29.670Z,16.54
2022-10-19T16:35:56.716Z,16.51
2022-10-19T16:38:23.514Z,16.51
2022-10-19T16:40:50.514Z,16.45
2022-10-19T16:43:17.311Z,16.45
2022-10-19T16:45:44.414Z,16.45
2022-10-19T16:48:14.292Z,16.45
2022-10-19T16:50:41.299Z,16.55
2022-10-19T16:53:10.422Z,16.62
2022-10-19T16:55:37.957Z,16.58
2022-10-19T16:58:04.754Z,16.50
2022-10-19T17:00:31.882Z,16.42
2022-10-19T17:02:58.687Z,16.37
2022-10-19T17:05:25.760Z,16.36
2022-10-19T17:07:52.732Z,16.32
2022-10-19T17:10:19.813Z,16.34
2022-10-19T17:12:46.638Z,16.41
2022-10-19T17:18:00.536Z,16.43
2022-10-19T17:20:27.572Z,16.50
2022-10-19T17:22:54.351Z,16.64
2022-10-19T17:25:21.394Z,16.61
2022-10-19T17:27:51.663Z,16.49
2022-10-19T17:30:18.833Z,16.42
2022-10-19T17:32:45.543Z,16.33
2022-10-19T17:35:12.555Z,16.25
2022-10-19T17:37:39.340Z,16.21
2022-10-19T17:40:07.106Z,16.17
2022-10-19T17:42:36.642Z,16.11
2022-10-19T17:45:03.892Z,16.07
2022-10-19T17:47:30.744Z,16.05
2022-10-19T17:49:57.775Z,16.06
2022-10-19T17:52:24.620Z,16.02
2022-10-19T17:55:11.140Z,16.04
2022-10-19T17:57:38.616Z,15.95
2022-10-19T18:00:07.184Z,15.90
2022-10-19T18:02:35.508Z,15.89
2022-10-19T18:05:02.651Z,15.86
2022-10-19T18:07:29.455Z,15.82
2022-10-19T18:09:56.544Z,15.85
2022-10-19T18:12:23.333Z,15.81
2022-10-19T18:14:50.454Z,15.77
2022-10-19T18:17:17.238Z,15.76
2022-10-19T18:19:44.494Z,15.75
2022-10-19T18:22:11.326Z,15.69
2022-10-19T18:24:38.466Z,15.68
2022-10-19T18:27:05.297Z,15.62
2022-10-19T18:29:32.349Z,15.63
2022-10-19T18:31:59.200Z,15.64
2022-10-19T18:34:26.429Z,15.61
2022-10-19T18:36:54.168Z,15.58
2022-10-19T18:39:21.464Z,15.56
2022-10-19T18:41:54.817Z,15.48
2022-10-19T18:44:26.357Z,15.47
2022-10-19T18:46:55.185Z,15.47
2022-10-19T18:49:22.307Z,15.49
2022-10-19T18:51:54.026Z,15.42
2022-10-19T18:54:22.868Z,15.43
2022-10-19T18:56:49.647Z,15.44
2022-10-19T18:59:16.993Z,15.46
2022-10-19T19:01:43.961Z,15.45
2022-10-19T19:04:11.071Z,15.42
2022-10-19T19:06:38.213Z,15.30
2022-10-19T19:09:09.658Z,15.31
2022-10-19T19:11:38.285Z,15.32
2022-10-19T19:14:07.639Z,15.36
2022-10-19T19:16:35.972Z,15.35
2022-10-19T19:19:03.212Z,15.35
2022-10-19T19:21:30.790Z,15.35
2022-10-19T19:23:59.738Z,15.33
2022-10-19T19:26:27.964Z,15.33
2022-10-19T19:28:55.152Z,15.33
2022-10-19T19:31:22.053Z,15.32
2022-10-19T19:33:49.134Z,15.26
2022-10-19T19:36:16.558Z,15.26
2022-10-19T19:38:43.813Z,15.28
2022-10-19T19:41:14.425Z,15.15
2022-10-19T19:43:42.467Z,15.22
2022-10-19T19:46:14.679Z,15.14
2022-10-19T19:48:42.432Z,15.13
2022-10-19T19:51:19.717Z,15.11
2022-10-19T19:53:47.189Z,15.12
2022-10-19T19:56:14.373Z,15.13
2022-10-19T19:58:41.593Z,15.11
2022-10-19T20:01:16.554Z,15.03
2022-10-19T20:03:43.576Z,15.02
2022-10-19T20:06:10.598Z,14.98
2022-10-19T20:08:37.891Z,14.96
2022-10-19T20:11:07.044Z,14.98
2022-10-19T20:13:35.364Z,14.96
2022-10-19T20:16:13.120Z,14.83
2022-10-19T20:18:51.010Z,14.83
2022-10-19T20:21:18.310Z,14.82
2022-10-19T20:23:46.413Z,14.80
2022-10-19T20:26:21.074Z,14.84
2022-10-19T20:28:48.208Z,14.77
2022-10-19T20:31:15.134Z,14.75
2022-10-19T20:33:43.048Z,14.81
2022-10-19T20:36:11.988Z,14.78
2022-10-19T20:38:39.412Z,14.75
2022-10-19T20:41:08.257Z,14.70
2022-10-19T20:43:36.044Z,14.72
2022-10-19T20:46:21.021Z,14.69
2022-10-19T20:48:48.144Z,14.56
2022-10-19T20:51:16.319Z,14.60
2022-10-19T20:53:49.258Z,14.64
2022-10-19T20:56:21.745Z,14.56
2022-10-19T20:58:56.049Z,14.54
2022-10-19T21:01:23.388Z,14.62
2022-10-19T21:03:55.089Z,14.50
2022-10-19T21:06:23.216Z,14.47
2022-10-19T21:08:50.528Z,14.45
2022-10-19T21:11:18.178Z,14.41
2022-10-19T21:13:45.429Z,14.50
2022-10-19T21:16:19.472Z,14.41
2022-10-19T21:18:47.491Z,14.45
2022-10-19T21:21:18.629Z,14.40
2022-10-19T21:23:47.518Z,14.29
2022-10-19T21:26:14.460Z,14.35
2022-10-19T21:28:48.321Z,14.35
2022-10-19T21:31:15.287Z,14.24
2022-10-19T21:33:42.363Z,14.24
2022-10-19T21:36:09.272Z,14.21
2022-10-19T21:38:36.358Z,14.25
2022-10-19T21:41:05.329Z,14.17
2022-10-19T21:43:32.380Z,14.15
2022-10-19T21:46:01.888Z,14.10
2022-10-19T21:48:29.573Z,14.13
2022-10-19T21:50:56.392Z,14.11
2022-10-19T21:53:23.695Z,14.06
2022-10-19T21:55:51.271Z,14.01
2022-10-19T21:58:18.278Z,14.00
2022-10-19T22:00:45.115Z,14.02
2022-10-19T22:03:12.113Z,14.06
2022-10-19T22:05:39.092Z,13.99
2022-10-19T22:08:06.161Z,13.93
2022-10-19T22:10:32.964Z,13.95
2022-10-19T22:12:59.922Z,13.89
2022-10-19T22:15:26.717Z,13.87
2022-10-19T22:17:53.721Z,13.87
2022-10-19T22:20:20.468Z,13.82
2022-10-19T22:22:50.263Z,13.77
2022-10-19T22:25:19.541Z,13.86
2022-10-19T22:27:46.639Z,13.81
2022-10-19T22:30:13.452Z,13.75
2022-10-19T22:32:40.496Z,13.71
2022-10-19T22:35:07.491Z,13.70
2022-10-19T22:37:34.679Z,13.69
2022-10-19T22:40:01.587Z,13.72
2022-10-19T22:42:28.590Z,13.64
2022-10-19T22:44:55.381Z,13.63
2022-10-19T22:47:22.212Z,13.64
2022-10-19T22:49:49.364Z,13.57
2022-10-19T22:52:16.721Z,13.54
2022-10-19T22:54:43.752Z,13.60
2022-10-19T22:57:11.833Z,13.62
2022-10-19T22:59:38.863Z,13.50
2022-10-19T23:02:05.665Z,13.49
2022-10-19T23:04:32.700Z,13.46
2022-10-19T23:06:59.501Z,13.40
2022-10-19T23:09:26.531Z,13.44
2022-10-19T23:11:53.287Z,13.43
2022-10-19T23:14:20.326Z,13.40
2022-10-19T23:16:47.356Z,13.32
2022-10-19T23:19:14.366Z,13.35
2022-10-19T23:21:41.126Z,13.27
2022-10-19T23:24:08.122Z,13.21
2022-10-19T23:26:34.941Z,13.18
2022-10-19T23:29:01.975Z,13.21
2022-10-19T23:31:30.329Z,13.10
2022-10-19T23:33:57.370Z,13.09
2022-10-19T23:36:28.537Z,13.13
2022-10-19T23:38:55.984Z,13.05
2022-10-19T23:41:23.085Z,12.98
2022-10-19T23:43:50.221Z,12.99
2022-10-19T23:46:17.252Z,12.97
2022-10-19T23:48:44.256Z,12.97
2022-10-19T23:51:12.892Z,12.90
2022-10-19T23:53:41.467Z,12.87
2022-10-19T23:56:14.109Z,12.92
2022-10-19T23:58:41.244Z,12.85
